createdAt,value
2016-09-19T00:00:10.979Z,1.38
2016-09-19T00:01:10.947Z,1.24
2016-09-19T00:02:10.945Z,1.24
2016-09-19T00:03:10.930Z,1.28
2016-09-19T00:04:10.924Z,1.28
2016-09-19T00:05:10.921Z,1.29
2016-09-19T00:06:10.882Z,1.18
2016-09-19T00:07:10.872Z,1.43
2016-09-19T00:08:10.862Z,1.32
2016-09-19T00:09:10.864Z,1.32
2016-09-19T00:10:10.841Z,1.38
2016-09-19T00:11:10.800Z,1.36
2016-09-19T00:12:10.807Z,1.43
2016-09-19T00:13:10.795Z,1.46
2016-09-19T00:14:10.787Z,1.43
2016-09-19T00:15:10.754Z,1.43
2016-09-19T00:16:10.740Z,1.52
2016-09-19T00:17:10.712Z,1.43
2016-09-19T00:18:10.726Z,1.49
2016-09-19T00:19:10.700Z,1.42
2016-09-19T00:20:10.667Z,1.39
2016-09-19T00:21:10.680Z,1.36
2016-09-19T00:22:10.669Z,1.25
2016-09-19T00:23:10.655Z,1.24
2016-09-19T00:24:10.644Z,1.34
2016-09-19T00:25:10.615Z,1.52
2016-09-19T00:26:10.602Z,1.47
2016-09-19T00:27:10.592Z,1.35
2016-09-19T00:28:10.557Z,1.44
2016-09-19T00:29:10.561Z,1.43
2016-09-19T00:30:10.545Z,1.39
2016-09-19T00:31:10.523Z,1.32
2016-09-19T00:32:10.509Z,1.29
2016-09-19T00:33:10.503Z,1.32
2016-09-19T00:34:10.474Z,1.26
2016-09-19T00:35:10.462Z,1.24
2016-09-19T00:36:10.448Z,1.1
2016-09-19T00:37:10.461Z,1.08
2016-09-19T00:38:10.433Z,1.21
2016-09-19T00:39:10.426Z,1.16
2016-09-19T00:40:10.401Z,1.18
2016-09-19T00:41:10.398Z,1.24
2016-09-19T00:42:10.380Z,1.31
2016-09-19T00:43:10.358Z,1.26
2016-09-19T00:44:10.338Z,1.35
2016-09-19T00:45:10.357Z,1.49
2016-09-19T00:46:10.339Z,1.47
2016-09-19T00:47:10.317Z,1.46
2016-09-19T00:48:10.301Z,1.36
2016-09-19T00:49:10.282Z,1.18
2016-09-19T00:50:10.288Z,1.14
2016-09-19T00:51:10.275Z,1.14
2016-09-19T00:52:10.262Z,1.24
2016-09-19T00:53:10.228Z,1.2
2016-09-19T00:54:10.209Z,1.11
2016-09-19T00:55:10.208Z,1.1
2016-09-19T00:56:10.190Z,1.1
2016-09-19T00:57:10.173Z,1.16
2016-09-19T00:58:10.169Z,1.24
2016-09-19T00:59:10.149Z,1.32
2016-09-19T01:00:10.147Z,1.2
2016-09-19T01:01:10.623Z,1.2
2016-09-19T01:02:10.115Z,1.26
2016-09-19T01:03:10.118Z,1.16
2016-09-19T01:04:10.081Z,1.11
2016-09-19T01:05:10.083Z,1.14
2016-09-19T01:06:10.049Z,1.16
2016-09-19T01:07:10.031Z,1.13
2016-09-19T01:08:10.022Z,1.34
2016-09-19T01:09:10.014Z,1.43
2016-09-19T01:10:10.008Z,1.47
2016-09-19T01:11:09.980Z,1.53
2016-09-19T01:12:09.987Z,1.5
2016-09-19T01:13:09.977Z,1.36
2016-09-19T01:14:09.953Z,1.42
2016-09-19T01:15:09.934Z,1.57
2016-09-19T01:16:09.937Z,1.61
2016-09-19T01:17:09.911Z,1.6
2016-09-19T01:18:09.898Z,1.6
2016-09-19T01:19:09.885Z,1.65
2016-09-19T01:20:10.186Z,1.68
2016-09-19T01:21:09.882Z,1.83
2016-09-19T01:22:09.837Z,1.79
2016-09-19T01:23:09.845Z,1.81
2016-09-19T01:24:09.819Z,1.63
2016-09-19T01:25:10.107Z,1.56
2016-09-19T01:26:09.798Z,1.68
2016-09-19T01:27:09.776Z,1.7
2016-09-19T01:28:09.772Z,1.77
2016-09-19T01:29:09.762Z,1.6
2016-09-19T01:30:09.741Z,1.47
2016-09-19T01:31:09.715Z,1.57
2016-09-19T01:32:09.714Z,1.46
2016-09-19T01:33:09.700Z,1.28
2016-09-19T01:34:09.708Z,1.34
2016-09-19T01:35:09.670Z,1.46
2016-09-19T01:36:09.678Z,1.35
2016-09-19T01:37:09.651Z,1.26
2016-09-19T01:38:09.647Z,1.25
2016-09-19T01:39:09.652Z,1.2
2016-09-19T01:40:09.619Z,1.16
2016-09-19T01:41:09.595Z,1.17
2016-09-19T01:42:09.576Z,1.18
2016-09-19T01:43:09.581Z,1.2
2016-09-19T01:44:09.550Z,1.17
2016-09-19T01:45:09.533Z,1.16
2016-09-19T01:46:09.536Z,1.21
2016-09-19T01:47:09.503Z,1.2
2016-09-19T01:48:09.510Z,1.25
2016-09-19T01:49:09.496Z,1.24
2016-09-19T01:50:09.484Z,1.2
2016-09-19T01:51:09.468Z,1.25
2016-09-19T01:52:09.450Z,1.29
2016-09-19T01:53:09.439Z,1.26
2016-09-19T01:54:09.424Z,1.14
2016-09-19T01:55:09.406Z,1.26
2016-09-19T01:56:09.392Z,1.2
2016-09-19T01:57:09.378Z,1.2
2016-09-19T01:58:09.369Z,1.16
2016-09-19T01:59:09.354Z,1.21
2016-09-19T02:00:09.322Z,1.21
2016-09-19T02:01:09.308Z,1.18
2016-09-19T02:02:09.316Z,1.31
2016-09-19T02:03:09.296Z,1.32
2016-09-19T02:04:09.279Z,1.25
2016-09-19T02:05:09.268Z,1.38
2016-09-19T02:06:09.256Z,1.44
2016-09-19T02:07:09.257Z,1.44
2016-09-19T02:08:09.240Z,1.35
2016-09-19T02:09:09.219Z,1.36
2016-09-19T02:10:09.187Z,1.53
2016-09-19T02:11:09.182Z,1.77
2016-09-19T02:12:09.198Z,1.85
2016-09-19T02:13:09.184Z,1.9
2016-09-19T02:14:09.149Z,2.04
2016-09-19T02:15:09.143Z,1.95
2016-09-19T02:16:09.101Z,2.11
2016-09-19T02:17:09.113Z,2.29
2016-09-19T02:18:09.094Z,2.23
2016-09-19T02:19:09.090Z,2.12
2016-09-19T02:20:09.064Z,1.86
2016-09-19T02:21:09.065Z,1.71
2016-09-19T02:22:09.040Z,1.7
2016-09-19T02:23:09.014Z,1.63
2016-09-19T02:24:09.010Z,1.6
2016-09-19T02:25:08.995Z,1.56
2016-09-19T02:26:09.310Z,1.52
2016-09-19T02:27:08.988Z,1.52
2016-09-19T02:28:08.980Z,1.54
2016-09-19T02:29:08.945Z,1.67
2016-09-19T02:30:08.951Z,1.57
2016-09-19T02:31:08.933Z,1.7
2016-09-19T02:32:08.923Z,1.68
2016-09-19T02:33:08.897Z,1.86
2016-09-19T02:34:08.899Z,1.92
2016-09-19T02:35:08.879Z,1.95
2016-09-19T02:36:08.850Z,1.98
2016-09-19T02:37:08.862Z,1.92
2016-09-19T02:38:08.839Z,1.75
2016-09-19T02:39:08.814Z,1.9
2016-09-19T02:40:08.790Z,2.02
2016-09-19T02:41:08.816Z,2.19
2016-09-19T02:42:08.764Z,2.23
2016-09-19T02:43:08.757Z,2.23
2016-09-19T02:44:08.745Z,2.25
2016-09-19T02:45:08.725Z,2.11
2016-09-19T02:46:08.728Z,2.14
2016-09-19T02:47:08.729Z,2.05
2016-09-19T02:48:08.699Z,1.95
2016-09-19T02:49:08.690Z,1.9
2016-09-19T02:50:08.663Z,2.02
2016-09-19T02:51:08.654Z,1.93
2016-09-19T02:52:08.948Z,2.01
2016-09-19T02:53:08.646Z,1.9
2016-09-19T02:54:08.614Z,1.85
2016-09-19T02:55:08.596Z,1.79
2016-09-19T02:56:08.595Z,1.79
2016-09-19T02:57:08.572Z,1.71
2016-09-19T02:58:08.557Z,1.72
2016-09-19T02:59:08.554Z,1.74
2016-09-19T03:00:08.526Z,1.65
2016-09-19T03:01:08.575Z,1.65
2016-09-19T03:02:08.508Z,1.63
2016-09-19T03:03:08.476Z,1.63
2016-09-19T03:04:08.482Z,1.63
2016-09-19T03:05:08.448Z,1.7
2016-09-19T03:06:08.433Z,1.67
2016-09-19T03:07:08.430Z,1.81
2016-09-19T03:08:08.407Z,1.79
2016-09-19T03:09:08.385Z,1.85
2016-09-19T03:10:08.375Z,1.79
2016-09-19T03:11:08.378Z,1.75
2016-09-19T03:12:08.355Z,1.77
2016-09-19T03:13:08.365Z,1.74
2016-09-19T03:14:08.317Z,1.83
2016-09-19T03:15:08.315Z,1.83
2016-09-19T03:16:08.325Z,1.83
2016-09-19T03:17:08.297Z,1.82
2016-09-19T03:18:08.289Z,1.82
2016-09-19T03:19:08.259Z,1.92
2016-09-19T03:20:08.251Z,1.86
2016-09-19T03:21:08.249Z,1.83
2016-09-19T03:22:08.217Z,1.86
2016-09-19T03:23:08.217Z,1.9
2016-09-19T03:24:08.198Z,1.9
2016-09-19T03:25:08.174Z,1.93
2016-09-19T03:26:08.151Z,1.89
2016-09-19T03:27:08.158Z,1.81
2016-09-19T03:28:08.149Z,1.7
2016-09-19T03:29:08.143Z,1.79
2016-09-19T03:30:08.114Z,1.89
2016-09-19T03:31:08.098Z,1.7
2016-09-19T03:32:08.088Z,1.83
2016-09-19T03:33:08.084Z,1.86
2016-09-19T03:34:08.067Z,2
2016-09-19T03:35:08.043Z,2.01
2016-09-19T03:36:08.014Z,2.07
2016-09-19T03:37:08.006Z,2
2016-09-19T03:38:07.997Z,1.9
2016-09-19T03:39:07.970Z,1.82
2016-09-19T03:40:07.973Z,1.86
2016-09-19T03:41:07.950Z,1.85
2016-09-19T03:42:07.924Z,1.95
2016-09-19T03:43:07.930Z,1.9
2016-09-19T03:44:07.904Z,1.82
2016-09-19T03:45:07.896Z,1.92
2016-09-19T03:46:07.864Z,1.93
2016-09-19T03:47:07.866Z,2
2016-09-19T03:48:07.841Z,1.89
2016-09-19T03:49:07.838Z,1.88
2016-09-19T03:50:07.836Z,1.65
2016-09-19T03:51:07.812Z,1.71
2016-09-19T03:52:07.814Z,1.64
2016-09-19T03:53:07.793Z,1.63
2016-09-19T03:54:07.765Z,1.57
2016-09-19T03:55:07.750Z,1.52
2016-09-19T03:56:07.744Z,1.46
2016-09-19T03:57:07.722Z,1.36
2016-09-19T03:58:07.721Z,1.42
2016-09-19T03:59:07.694Z,1.25
2016-09-19T04:00:07.702Z,1.38
2016-09-19T04:01:07.653Z,1.34
2016-09-19T04:02:07.673Z,1.38
2016-09-19T04:03:07.644Z,1.29
2016-09-19T04:04:07.617Z,1.43
2016-09-19T04:05:07.607Z,1.44
2016-09-19T04:06:07.581Z,1.61
2016-09-19T04:07:07.581Z,1.61
2016-09-19T04:08:07.555Z,1.64
2016-09-19T04:09:07.561Z,1.44
2016-09-19T04:10:07.555Z,1.54
2016-09-19T04:11:07.530Z,1.61
2016-09-19T04:12:07.520Z,1.6
2016-09-19T04:13:07.479Z,1.61
2016-09-19T04:14:07.493Z,1.57
2016-09-19T04:15:07.452Z,1.68
2016-09-19T04:16:07.459Z,1.64
2016-09-19T04:17:07.434Z,1.64
2016-09-19T04:18:07.415Z,1.49
2016-09-19T04:19:07.413Z,1.5
2016-09-19T04:20:07.392Z,1.46
2016-09-19T04:21:07.385Z,1.49
2016-09-19T04:22:07.366Z,1.6
2016-09-19T04:23:07.349Z,1.67
2016-09-19T04:24:07.332Z,1.63
2016-09-19T04:25:07.333Z,1.53
2016-09-19T04:26:07.289Z,1.61
2016-09-19T04:27:07.291Z,1.54
2016-09-19T04:28:07.273Z,1.64
2016-09-19T04:29:07.268Z,1.68
2016-09-19T04:30:07.253Z,1.63
2016-09-19T04:31:07.228Z,1.67
2016-09-19T04:32:07.219Z,1.61
2016-09-19T04:33:07.196Z,1.7
2016-09-19T04:34:07.195Z,1.72
2016-09-19T04:35:07.177Z,1.79
2016-09-19T04:36:07.145Z,1.7
2016-09-19T04:37:07.145Z,1.77
2016-09-19T04:38:07.154Z,1.82
2016-09-19T04:39:07.122Z,1.89
2016-09-19T04:40:07.111Z,1.81
2016-09-19T04:41:07.071Z,1.56
2016-09-19T04:42:07.071Z,1.68
2016-09-19T04:43:07.069Z,1.64
2016-09-19T04:44:07.068Z,1.61
2016-09-19T04:45:07.033Z,1.61
2016-09-19T04:46:07.031Z,1.64
2016-09-19T04:47:06.995Z,1.64
2016-09-19T04:48:06.984Z,1.61
2016-09-19T04:49:06.966Z,1.61
2016-09-19T04:50:06.951Z,1.61
2016-09-19T04:51:06.934Z,1.65
2016-09-19T04:52:06.950Z,1.63
2016-09-19T04:53:06.906Z,1.64
2016-09-19T04:54:06.907Z,1.6
2016-09-19T04:55:06.873Z,1.56
2016-09-19T04:56:06.864Z,1.64
2016-09-19T04:57:06.863Z,1.7
2016-09-19T04:58:06.856Z,1.64
2016-09-19T04:59:06.828Z,1.67
2016-09-19T05:00:06.818Z,1.74
2016-09-19T05:01:06.811Z,1.61
2016-09-19T05:02:06.788Z,1.57
2016-09-19T05:03:06.783Z,1.71
2016-09-19T05:04:06.775Z,1.71
2016-09-19T05:05:06.760Z,1.67
2016-09-19T05:06:06.716Z,1.74
2016-09-19T05:07:06.715Z,1.71
2016-09-19T05:08:06.683Z,1.82
2016-09-19T05:09:06.689Z,1.7
2016-09-19T05:10:06.666Z,1.71
2016-09-19T05:11:06.657Z,1.63
2016-09-19T05:12:06.630Z,1.63
2016-09-19T05:13:06.616Z,1.63
2016-09-19T05:14:06.598Z,1.61
2016-09-19T05:15:06.603Z,1.57
2016-09-19T05:16:06.573Z,1.63
2016-09-19T05:17:06.580Z,1.61
2016-09-19T05:18:06.567Z,1.46
2016-09-19T05:19:06.555Z,1.6
2016-09-19T05:20:06.513Z,1.63
2016-09-19T05:21:06.519Z,1.61
2016-09-19T05:22:06.491Z,1.6
2016-09-19T05:23:06.497Z,1.56
2016-09-19T05:24:06.496Z,1.56
2016-09-19T05:25:06.457Z,1.44
2016-09-19T05:26:06.446Z,1.57
2016-09-19T05:27:06.426Z,1.67
2016-09-19T05:28:06.421Z,1.56
2016-09-19T05:29:06.405Z,1.53
2016-09-19T05:30:06.375Z,1.65
2016-09-19T05:31:06.347Z,1.6
2016-09-19T05:32:06.350Z,1.61
2016-09-19T05:33:06.331Z,1.47
2016-09-19T05:34:06.323Z,1.39
2016-09-19T05:35:06.329Z,1.28
2016-09-19T05:36:06.309Z,1.26
2016-09-19T05:37:06.274Z,1.2
2016-09-19T05:38:06.260Z,1.28
2016-09-19T05:39:06.266Z,1.28
2016-09-19T05:40:06.232Z,1.49
2016-09-19T05:41:06.225Z,1.49
2016-09-19T05:42:06.210Z,1.46
2016-09-19T05:43:06.189Z,1.29
2016-09-19T05:44:06.168Z,1.25
2016-09-19T05:45:06.168Z,1.25
2016-09-19T05:46:06.139Z,1.2
2016-09-19T05:47:06.117Z,1.17
2016-09-19T05:48:06.118Z,1.14
2016-09-19T05:49:06.104Z,1.21
2016-09-19T05:50:06.097Z,1.26
2016-09-19T05:51:06.086Z,1.39
2016-09-19T05:52:06.382Z,1.25
2016-09-19T05:53:06.035Z,1.2
2016-09-19T05:54:06.041Z,1.28
2016-09-19T05:55:06.019Z,1.17
2016-09-19T05:56:06.319Z,1.1
2016-09-19T05:57:06.012Z,1.11
2016-09-19T05:58:05.979Z,1.07
2016-09-19T05:59:05.977Z,1.2
2016-09-19T06:00:05.962Z,1.2
2016-09-19T06:01:06.246Z,1.16
2016-09-19T06:02:06.091Z,1.07
2016-09-19T06:03:05.917Z,1.06
2016-09-19T06:04:05.901Z,1.07
2016-09-19T06:05:05.889Z,0.98
2016-09-19T06:06:05.856Z,0.81
2016-09-19T06:07:05.856Z,0.88
2016-09-19T06:08:05.829Z,0.89
2016-09-19T06:09:05.828Z,0.92
2016-09-19T06:10:05.812Z,0.71
2016-09-19T06:11:05.799Z,0.75
2016-09-19T06:12:05.796Z,0.77
2016-09-19T06:13:05.783Z,0.74
2016-09-19T06:14:05.748Z,0.63
2016-09-19T06:15:05.719Z,0.84
2016-09-19T06:16:05.722Z,0.74
2016-09-19T06:17:05.690Z,0.71
2016-09-19T06:18:05.693Z,0.68
2016-09-19T06:19:05.654Z,0.75
2016-09-19T06:20:05.670Z,0.71
2016-09-19T06:21:05.646Z,0.77
2016-09-19T06:22:05.635Z,0.63
2016-09-19T06:23:05.634Z,0.82
2016-09-19T06:24:05.606Z,0.63
2016-09-19T06:25:05.571Z,0.77
2016-09-19T06:26:05.578Z,0.72
2016-09-19T06:27:05.555Z,0.81
2016-09-19T06:28:05.534Z,0.78
2016-09-19T06:29:05.502Z,0.82
2016-09-19T06:30:05.496Z,0.84
2016-09-19T06:31:05.478Z,0.89
2016-09-19T06:32:05.471Z,1
2016-09-19T06:33:05.465Z,1.06
2016-09-19T06:34:05.443Z,0.98
2016-09-19T06:35:05.428Z,0.9
2016-09-19T06:36:05.412Z,0.82
2016-09-19T06:37:05.387Z,0.98
2016-09-19T06:38:05.376Z,0.84
2016-09-19T06:39:05.357Z,0.72
2016-09-19T06:40:05.354Z,0.77
2016-09-19T06:41:05.359Z,0.82
2016-09-19T06:42:05.337Z,0.74
2016-09-19T06:43:05.328Z,0.81
2016-09-19T06:44:05.281Z,0.89
2016-09-19T06:45:05.263Z,0.92
2016-09-19T06:46:05.267Z,0.95
2016-09-19T06:47:05.281Z,0.89
2016-09-19T06:48:05.250Z,0.93
2016-09-19T06:49:05.241Z,0.89
2016-09-19T06:50:05.196Z,0.89
2016-09-19T06:51:05.186Z,0.98
2016-09-19T06:52:05.181Z,1.08
2016-09-19T06:53:05.164Z,1.06
2016-09-19T06:54:05.144Z,1.08
2016-09-19T06:55:05.141Z,1.02
2016-09-19T06:56:05.137Z,1.1
2016-09-19T06:57:05.113Z,0.88
2016-09-19T06:58:05.091Z,0.84
2016-09-19T06:59:05.068Z,0.78
2016-09-19T07:00:05.051Z,0.82
2016-09-19T07:01:05.056Z,0.98
2016-09-19T07:02:06.413Z,1.07
2016-09-19T07:03:05.032Z,1.21
2016-09-19T07:04:04.996Z,1.28
2016-09-19T07:05:04.989Z,1.6
2016-09-19T07:06:04.983Z,1.77
2016-09-19T07:07:04.952Z,1.39
2016-09-19T07:08:04.927Z,1.52
2016-09-19T07:09:04.917Z,1.32
2016-09-19T07:10:04.901Z,1.44
2016-09-19T07:11:04.921Z,1.28
2016-09-19T07:12:04.886Z,1.1
2016-09-19T07:13:04.879Z,1.13
2016-09-19T07:14:04.846Z,1.26
2016-09-19T07:15:04.856Z,1.24
2016-09-19T07:16:04.834Z,1.26
2016-09-19T07:17:04.820Z,1.07
2016-09-19T07:18:04.814Z,1.26
2016-09-19T07:19:04.781Z,1.16
2016-09-19T07:20:04.769Z,1.14
2016-09-19T07:21:04.763Z,0.95
2016-09-19T07:22:04.754Z,1.1
2016-09-19T07:23:04.734Z,1.21
2016-09-19T07:24:04.725Z,1.31
2016-09-19T07:25:04.688Z,1.42
2016-09-19T07:26:04.680Z,1.46
2016-09-19T07:27:04.654Z,1.44
2016-09-19T07:28:04.651Z,1.47
2016-09-19T07:29:04.639Z,1.43
2016-09-19T07:30:04.627Z,1.56
2016-09-19T07:31:04.617Z,1.64
2016-09-19T07:32:04.615Z,1.47
2016-09-19T07:33:04.572Z,1.42
2016-09-19T07:34:04.576Z,1.47
2016-09-19T07:35:04.541Z,1.79
2016-09-19T07:36:04.544Z,1.85
2016-09-19T07:37:04.538Z,1.82
2016-09-19T07:38:04.529Z,1.72
2016-09-19T07:39:04.505Z,1.88
2016-09-19T07:40:04.501Z,1.79
2016-09-19T07:41:04.490Z,1.72
2016-09-19T07:42:04.448Z,1.79
2016-09-19T07:43:04.436Z,1.82
2016-09-19T07:44:04.415Z,1.79
2016-09-19T07:45:04.403Z,1.47
2016-09-19T07:46:04.421Z,1.47
2016-09-19T07:47:04.404Z,1.63
2016-09-19T07:48:04.369Z,1.56
2016-09-19T07:49:04.379Z,1.83
2016-09-19T07:50:04.352Z,1.98
2016-09-19T07:51:04.344Z,2
2016-09-19T07:52:04.312Z,2.11
2016-09-19T07:53:04.308Z,2.07
2016-09-19T07:54:04.611Z,1.9
2016-09-19T07:55:04.269Z,1.85
2016-09-19T07:56:04.275Z,1.98
2016-09-19T07:57:04.233Z,1.77
2016-09-19T07:58:04.239Z,1.93
2016-09-19T07:59:04.244Z,1.72
2016-09-19T08:00:04.224Z,1.7
2016-09-19T08:01:04.509Z,1.88
2016-09-19T08:02:04.525Z,1.64
2016-09-19T08:03:04.155Z,1.68
2016-09-19T08:04:04.160Z,1.77
2016-09-19T08:05:04.159Z,1.68
2016-09-19T08:06:04.135Z,1.9
2016-09-19T08:07:04.099Z,2.14
2016-09-19T08:08:04.106Z,2.23
2016-09-19T08:09:04.088Z,2.25
2016-09-19T08:10:04.057Z,1.92
2016-09-19T08:11:04.081Z,1.89
2016-09-19T08:12:04.044Z,1.85
2016-09-19T08:13:04.033Z,1.85
2016-09-19T08:14:04.041Z,1.93
2016-09-19T08:15:04.005Z,1.88
2016-09-19T08:16:04.004Z,2.01
2016-09-19T08:17:03.977Z,2.05
2016-09-19T08:18:03.981Z,2.04
2016-09-19T08:19:03.952Z,2.11
2016-09-19T08:20:03.953Z,2.15
2016-09-19T08:21:03.941Z,2.12
2016-09-19T08:22:03.897Z,2.18
2016-09-19T08:23:03.906Z,2.04
2016-09-19T08:24:03.892Z,1.98
2016-09-19T08:25:03.890Z,1.89
2016-09-19T08:26:03.874Z,1.81
2016-09-19T08:27:03.853Z,1.74
2016-09-19T08:28:03.854Z,1.54
2016-09-19T08:29:03.811Z,1.83
2016-09-19T08:30:03.808Z,1.56
2016-09-19T08:31:03.804Z,1.83
2016-09-19T08:32:03.785Z,1.72
2016-09-19T08:33:03.759Z,1.68
2016-09-19T08:34:03.760Z,1.52
2016-09-19T08:35:03.746Z,1.64
2016-09-19T08:36:03.737Z,1.65
2016-09-19T08:37:03.695Z,1.65
2016-09-19T08:38:03.692Z,1.61
2016-09-19T08:39:03.670Z,1.47
2016-09-19T08:40:03.678Z,1.38
2016-09-19T08:41:03.665Z,1.24
2016-09-19T08:42:03.653Z,1.21
2016-09-19T08:43:03.628Z,1.34
2016-09-19T08:44:03.621Z,1.39
2016-09-19T08:45:03.594Z,1.44
2016-09-19T08:46:03.590Z,1.61
2016-09-19T08:47:03.580Z,1.49
2016-09-19T08:48:03.559Z,1.5
2016-09-19T08:49:03.550Z,1.68
2016-09-19T08:50:03.533Z,1.74
2016-09-19T08:51:03.535Z,1.67
2016-09-19T08:52:03.510Z,1.47
2016-09-19T08:53:03.507Z,1.57
2016-09-19T08:54:03.473Z,1.63
2016-09-19T08:55:03.478Z,1.61
2016-09-19T08:56:03.453Z,1.68
2016-09-19T08:57:03.434Z,1.72
2016-09-19T08:58:03.424Z,1.95
2016-09-19T08:59:03.403Z,1.9
2016-09-19T09:00:03.392Z,1.86
2016-09-19T09:01:03.398Z,1.9
2016-09-19T09:02:03.348Z,1.89
2016-09-19T09:03:03.363Z,1.67
2016-09-19T09:04:03.336Z,1.74
2016-09-19T09:05:03.326Z,1.74
2016-09-19T09:06:03.319Z,1.81
2016-09-19T09:07:03.309Z,1.79
2016-09-19T09:08:03.272Z,1.89
2016-09-19T09:09:03.293Z,1.89
2016-09-19T09:10:03.262Z,2.02
2016-09-19T09:11:03.246Z,2.25
2016-09-19T09:12:03.237Z,2.04
2016-09-19T09:13:03.228Z,2.01
2016-09-19T09:14:03.213Z,1.7
2016-09-19T09:15:03.191Z,1.83
2016-09-19T09:16:03.163Z,1.93
2016-09-19T09:17:03.165Z,2.09
2016-09-19T09:18:03.164Z,2.22
2016-09-19T09:19:03.136Z,2.09
2016-09-19T09:20:03.109Z,2.09
2016-09-19T09:21:03.126Z,2.02
2016-09-19T09:22:03.089Z,2.08
2016-09-19T09:23:03.066Z,2.18
2016-09-19T09:24:03.063Z,2.11
2016-09-19T09:25:03.060Z,2.2
2016-09-19T09:26:03.036Z,2.14
2016-09-19T09:27:03.023Z,2
2016-09-19T09:28:03.033Z,1.83
2016-09-19T09:29:02.999Z,1.47
2016-09-19T09:30:02.978Z,1.57
2016-09-19T09:31:02.961Z,1.56
2016-09-19T09:32:02.959Z,1.71
2016-09-19T09:33:02.958Z,1.72
2016-09-19T09:34:02.945Z,1.86
2016-09-19T09:35:02.937Z,2.09
2016-09-19T09:36:02.901Z,2.14
2016-09-19T09:37:02.889Z,1.98
2016-09-19T09:38:02.860Z,2.09
2016-09-19T09:39:02.868Z,2.5
2016-09-19T09:40:02.858Z,2.77
2016-09-19T09:41:02.847Z,2.77
2016-09-19T09:42:02.829Z,2.18
2016-09-19T09:43:02.821Z,2.53
2016-09-19T09:44:02.793Z,2.81
2016-09-19T09:45:02.774Z,2.32
2016-09-19T09:46:02.793Z,2.18
2016-09-19T09:47:02.763Z,2.47
2016-09-19T09:48:02.742Z,2.56
2016-09-19T09:49:02.724Z,2.48
2016-09-19T09:50:02.736Z,2.73
2016-09-19T09:51:02.711Z,2.73
2016-09-19T09:52:02.697Z,2.62
2016-09-19T09:53:02.683Z,2.47
2016-09-19T09:54:02.656Z,2.59
2016-09-19T09:55:02.668Z,2.66
2016-09-19T09:56:02.634Z,2.79
2016-09-19T09:57:02.640Z,2.86
2016-09-19T09:58:02.618Z,2.99
2016-09-19T09:59:02.622Z,3.12
2016-09-19T10:00:02.596Z,2.99
2016-09-19T10:01:02.821Z,3.23
2016-09-19T10:02:02.566Z,2.95
2016-09-19T10:03:02.557Z,3.01
2016-09-19T10:04:02.560Z,2.86
2016-09-19T10:05:02.533Z,2.66
2016-09-19T10:06:02.508Z,2.9
2016-09-19T10:07:02.495Z,2.95
2016-09-19T10:08:02.485Z,2.77
2016-09-19T10:09:02.474Z,2.74
2016-09-19T10:10:02.471Z,2.73
2016-09-19T10:11:02.454Z,2.83
2016-09-19T10:12:02.442Z,2.55
2016-09-19T10:13:02.426Z,2.61
2016-09-19T10:14:02.426Z,2.55
2016-09-19T10:15:02.385Z,2.48
2016-09-19T10:16:02.392Z,2.8
2016-09-19T10:17:02.381Z,2.73
2016-09-19T10:18:02.360Z,2.56
2016-09-19T10:19:02.343Z,2.47
2016-09-19T10:20:02.321Z,2.12
2016-09-19T10:21:02.305Z,2.15
2016-09-19T10:22:02.317Z,2.07
2016-09-19T10:23:02.608Z,2.08
2016-09-19T10:24:02.284Z,2.23
2016-09-19T10:25:02.275Z,2.27
2016-09-19T10:26:02.240Z,2.45
2016-09-19T10:27:02.251Z,2.48
2016-09-19T10:28:02.217Z,2.62
2016-09-19T10:29:02.237Z,2.61
2016-09-19T10:30:02.211Z,2.71
2016-09-19T10:31:02.199Z,2.55
2016-09-19T10:32:02.167Z,2.77
2016-09-19T10:33:02.172Z,2.94
2016-09-19T10:34:02.141Z,3.08
2016-09-19T10:35:02.151Z,3.23
2016-09-19T10:36:02.127Z,3.2
2016-09-19T10:37:02.103Z,2.99
2016-09-19T10:38:02.104Z,2.92
2016-09-19T10:39:02.097Z,2.83
2016-09-19T10:40:02.079Z,2.63
2016-09-19T10:41:02.079Z,2.71
2016-09-19T10:42:02.054Z,2.58
2016-09-19T10:43:02.051Z,2.65
2016-09-19T10:44:02.013Z,2.61
2016-09-19T10:45:02.021Z,2.5
2016-09-19T10:46:02.016Z,2.79
2016-09-19T10:47:01.973Z,2.73
2016-09-19T10:48:01.996Z,2.87
2016-09-19T10:49:01.960Z,2.94
2016-09-19T10:50:01.970Z,3.08
2016-09-19T10:51:01.943Z,3.3
2016-09-19T10:52:01.944Z,2.89
2016-09-19T10:53:01.917Z,2.86
2016-09-19T10:54:01.898Z,2.89
2016-09-19T10:55:01.892Z,2.81
2016-09-19T10:56:01.872Z,2.92
2016-09-19T10:57:01.860Z,2.74
2016-09-19T10:58:01.857Z,2.79
2016-09-19T10:59:01.837Z,2.84
2016-09-19T11:00:01.813Z,2.77
2016-09-19T11:01:01.822Z,2.97
2016-09-19T11:02:01.781Z,3.2
2016-09-19T11:03:01.846Z,3.26
2016-09-19T11:04:01.767Z,3.41
2016-09-19T11:05:01.763Z,3.6
2016-09-19T11:06:01.747Z,3.64
2016-09-19T11:07:01.737Z,3.7
2016-09-19T11:08:01.737Z,3.67
2016-09-19T11:09:01.704Z,4
2016-09-19T11:10:01.691Z,4.08
2016-09-19T11:11:01.986Z,3.99
2016-09-19T11:12:01.660Z,4.11
2016-09-19T11:13:01.661Z,4.17
2016-09-19T11:14:01.951Z,4.08
2016-09-19T11:15:01.631Z,4.02
2016-09-19T11:16:01.605Z,3.35
2016-09-19T11:17:01.599Z,3.46
2016-09-19T11:18:01.588Z,3.26
2016-09-19T11:19:01.590Z,3.39
2016-09-19T11:20:01.571Z,3.59
2016-09-19T11:21:01.565Z,3.81
2016-09-19T11:22:01.552Z,3.82
2016-09-19T11:23:01.522Z,4.11
2016-09-19T11:24:01.507Z,4.1
2016-09-19T11:25:01.504Z,4.07
2016-09-19T11:26:01.505Z,4.21
2016-09-19T11:27:01.474Z,4.14
2016-09-19T11:28:01.477Z,3.81
2016-09-19T11:29:01.463Z,4.07
2016-09-19T11:30:01.432Z,3.96
2016-09-19T11:31:01.446Z,3.7
2016-09-19T11:32:01.427Z,3.93
2016-09-19T11:33:01.421Z,3.8
2016-09-19T11:34:01.414Z,3.56
2016-09-19T11:35:01.377Z,3.42
2016-09-19T11:36:01.357Z,3.26
2016-09-19T11:37:01.376Z,3.37
2016-09-19T11:38:01.354Z,3.33
2016-09-19T11:39:01.329Z,3.26
2016-09-19T11:40:01.333Z,2.94
2016-09-19T11:41:01.315Z,3.35
2016-09-19T11:42:01.300Z,3.23
2016-09-19T11:43:01.304Z,3.39
2016-09-19T11:44:01.284Z,3.59
2016-09-19T11:45:01.249Z,3.67
2016-09-19T11:46:01.265Z,3.84
2016-09-19T11:47:01.239Z,3.95
2016-09-19T11:48:01.225Z,3.81
2016-09-19T11:49:01.220Z,3.84
2016-09-19T11:50:01.193Z,3.52
2016-09-19T11:51:01.180Z,3.08
2016-09-19T11:52:01.168Z,2.97
2016-09-19T11:53:01.153Z,2.95
2016-09-19T11:54:01.148Z,2.89
2016-09-19T11:55:01.126Z,2.89
2016-09-19T11:56:01.127Z,2.76
2016-09-19T11:57:01.105Z,2.8
2016-09-19T11:58:01.099Z,2.76
2016-09-19T11:59:01.067Z,2.98
2016-09-19T12:00:01.052Z,2.95
2016-09-19T12:01:01.047Z,3.05
2016-09-19T12:02:01.021Z,2.98
2016-09-19T12:03:02.279Z,2.83
2016-09-19T12:04:01.015Z,2.76
2016-09-19T12:05:00.979Z,2.83
2016-09-19T12:06:00.988Z,2.59
2016-09-19T12:07:00.963Z,2.5
2016-09-19T12:08:00.959Z,2.58
2016-09-19T12:09:00.961Z,2.62
2016-09-19T12:10:00.915Z,2.79
2016-09-19T12:11:00.914Z,2.77
2016-09-19T12:12:00.920Z,2.76
2016-09-19T12:13:00.907Z,2.66
2016-09-19T12:14:00.875Z,2.43
2016-09-19T12:15:00.859Z,2.44
2016-09-19T12:16:00.848Z,2.51
2016-09-19T12:17:00.837Z,2.32
2016-09-19T12:18:00.821Z,1.95
2016-09-19T12:19:00.799Z,2.01
2016-09-19T12:20:00.818Z,2.05
2016-09-19T12:21:00.779Z,2.44
2016-09-19T12:22:00.779Z,2.29
2016-09-19T12:23:00.770Z,2.15
2016-09-19T12:24:00.744Z,2.2
2016-09-19T12:25:00.731Z,2.19
2016-09-19T12:26:00.731Z,2.45
2016-09-19T12:27:00.704Z,2.43
2016-09-19T12:28:00.678Z,2.56
2016-09-19T12:29:00.661Z,2.79
2016-09-19T12:30:00.653Z,2.8
2016-09-19T12:31:00.643Z,2.94
2016-09-19T12:32:00.648Z,3.1
2016-09-19T12:33:00.624Z,3.08
2016-09-19T12:34:00.607Z,3.07
2016-09-19T12:35:00.580Z,3.13
2016-09-19T12:36:00.594Z,3.41
2016-09-19T12:37:00.561Z,3.25
2016-09-19T12:38:00.564Z,3.22
2016-09-19T12:39:00.547Z,3.25
2016-09-19T12:40:00.526Z,2.97
2016-09-19T12:41:00.506Z,2.92
2016-09-19T12:42:00.495Z,2.76
2016-09-19T12:43:00.493Z,2.8
2016-09-19T12:44:00.479Z,2.53
2016-09-19T12:45:00.488Z,2.51
2016-09-19T12:46:00.485Z,2.56
2016-09-19T12:47:00.434Z,2.84
2016-09-19T12:48:00.404Z,2.76
2016-09-19T12:49:00.406Z,2.76
2016-09-19T12:50:00.393Z,2.71
2016-09-19T12:51:00.378Z,2.36
2016-09-19T12:52:00.376Z,2.33
2016-09-19T12:53:00.328Z,2.3
2016-09-19T12:54:00.325Z,2.19
2016-09-19T12:55:00.324Z,1.93
2016-09-19T12:56:00.302Z,2.15
2016-09-19T12:57:00.297Z,2.19
2016-09-19T12:58:00.274Z,2.19
2016-09-19T12:59:00.264Z,2.11
2016-09-19T13:00:00.262Z,2.08
2016-09-19T13:01:00.230Z,2.14
2016-09-19T13:02:00.206Z,2.15
2016-09-19T13:03:00.324Z,1.89
2016-09-19T13:04:00.230Z,2
2016-09-19T13:05:00.160Z,1.82
2016-09-19T13:06:00.178Z,1.81
2016-09-19T13:07:00.144Z,1.64
2016-09-19T13:08:00.136Z,1.57
2016-09-19T13:09:00.119Z,1.68
2016-09-19T13:10:00.126Z,1.7
2016-09-19T13:11:00.077Z,1.71
2016-09-19T13:12:00.072Z,1.7
2016-09-19T13:13:00.048Z,2
2016-09-19T13:14:00.042Z,1.74
2016-09-19T13:15:00.024Z,1.71
2016-09-19T13:15:59.993Z,1.53
2016-09-19T13:16:59.999Z,1.5
2016-09-19T13:17:59.977Z,1.63
2016-09-19T13:18:59.962Z,1.68
2016-09-19T13:19:59.969Z,1.31
2016-09-19T13:20:59.944Z,1.17
2016-09-19T13:21:59.918Z,1.16